createdAt,value
2017-04-28T00:01:26.965Z,72.60
2017-04-28T00:03:53.413Z,72.60
2017-04-28T00:06:20.971Z,72.20
2017-04-28T00:08:48.166Z,71.60
2017-04-28T00:11:15.035Z,72.20
2017-04-28T00:13:41.865Z,72.40
2017-04-28T00:16:08.722Z,72.90
2017-04-28T00:18:35.553Z,72.80
2017-04-28T00:21:02.405Z,71.90
2017-04-28T00:23:29.229Z,71.90
2017-04-28T00:25:56.080Z,72.80
2017-04-28T00:28:22.842Z,73.10
2017-04-28T00:30:49.726Z,73.00
2017-04-28T00:33:16.521Z,72.00
2017-04-28T00:35:43.368Z,72.00
2017-04-28T00:38:09.818Z,72.00
2017-04-28T00:40:37.088Z,71.90
2017-04-28T00:43:04.264Z,72.40
2017-04-28T00:45:31.162Z,72.30
2017-04-28T00:47:57.983Z,72.50
2017-04-28T00:50:24.488Z,72.50
2017-04-28T00:52:50.919Z,71.90
2017-04-28T00:55:18.301Z,71.70
2017-04-28T00:57:45.130Z,71.60
2017-04-28T01:00:12.033Z,72.00
2017-04-28T01:02:38.864Z,72.40
2017-04-28T01:05:05.369Z,72.40
2017-04-28T01:07:32.202Z,72.00
2017-04-28T01:09:59.011Z,72.00
2017-04-28T01:12:25.923Z,71.50
2017-04-28T01:14:52.736Z,71.90
2017-04-28T01:17:19.589Z,71.90
2017-04-28T01:19:46.445Z,72.10
2017-04-28T01:22:13.305Z,72.00
2017-04-28T01:24:40.105Z,72.20
2017-04-28T01:27:06.954Z,71.80
2017-04-28T01:29:33.377Z,71.80
2017-04-28T01:31:59.926Z,71.40
2017-04-28T01:34:26.758Z,70.70
2017-04-28T01:36:53.592Z,69.90
2017-04-28T01:39:20.430Z,71.50
2017-04-28T01:41:47.273Z,72.20
2017-04-28T01:44:14.064Z,72.20
2017-04-28T01:46:41.276Z,71.90
2017-04-28T01:49:07.715Z,71.90
2017-04-28T01:51:35.021Z,72.50
2017-04-28T01:54:01.449Z,72.50
2017-04-28T01:56:28.310Z,72.30
2017-04-28T01:58:55.475Z,72.40
2017-04-28T02:01:22.330Z,72.40
2017-04-28T02:03:49.145Z,71.80
2017-04-28T02:06:15.991Z,72.50
2017-04-28T02:08:42.836Z,71.50
2017-04-28T02:11:10.173Z,72.10
2017-04-28T02:13:37.030Z,72.90
2017-04-28T02:16:03.971Z,72.90
2017-04-28T02:18:30.461Z,72.90
2017-04-28T02:20:56.949Z,72.10
2017-04-28T02:23:23.400Z,71.60
2017-04-28T02:25:50.281Z,71.00
2017-04-28T02:28:16.742Z,71.00
2017-04-28T02:30:44.109Z,71.90
2017-04-28T02:33:10.513Z,71.90
2017-04-28T02:35:37.030Z,72.20
2017-04-28T02:38:03.424Z,71.60
2017-04-28T02:40:30.273Z,72.20
2017-04-28T02:42:57.122Z,71.80
2017-04-28T02:45:23.957Z,71.80
2017-04-28T02:47:50.783Z,71.60
2017-04-28T02:50:17.657Z,71.20
2017-04-28T02:52:44.434Z,72.30
2017-04-28T02:55:11.921Z,71.60
2017-04-28T02:57:38.706Z,72.30
2017-04-28T03:00:05.183Z,72.20
2017-04-28T03:02:32.004Z,72.10
2017-04-28T03:04:58.445Z,72.00
2017-04-28T03:07:25.350Z,72.60
2017-04-28T03:09:52.542Z,71.60
2017-04-28T03:12:19.421Z,72.30
2017-04-28T03:14:46.258Z,72.40
2017-04-28T03:17:13.351Z,72.00
2017-04-28T03:19:40.145Z,72.70
2017-04-28T03:22:07.202Z,71.60
2017-04-28T03:24:34.064Z,70.80
2017-04-28T03:27:00.939Z,72.70
2017-04-28T03:29:28.125Z,73.30
2017-04-28T03:31:54.956Z,72.80
2017-04-28T03:34:21.778Z,72.50
2017-04-28T03:36:48.265Z,72.50
2017-04-28T03:39:15.041Z,73.20
2017-04-28T03:41:41.893Z,72.40
2017-04-28T03:44:08.301Z,72.40
2017-04-28T03:46:34.781Z,71.80
2017-04-28T03:49:01.557Z,71.00
2017-04-28T03:51:28.385Z,70.70
2017-04-28T03:53:55.167Z,71.20
2017-04-28T03:56:21.962Z,71.20
2017-04-28T03:58:48.750Z,71.40
2017-04-28T04:01:15.598Z,71.90
2017-04-28T04:03:42.055Z,71.90
2017-04-28T04:06:08.950Z,72.50
2017-04-28T04:08:35.794Z,72.70
2017-04-28T04:11:02.614Z,71.20
2017-04-28T04:13:29.383Z,70.80
2017-04-28T04:15:56.375Z,70.90
2017-04-28T04:18:23.149Z,71.20
2017-04-28T04:20:50.010Z,71.10
2017-04-28T04:23:16.445Z,71.10
2017-04-28T04:25:43.433Z,71.00
2017-04-28T04:28:10.202Z,70.50
2017-04-28T04:30:37.078Z,70.70
2017-04-28T04:33:03.573Z,70.70
2017-04-28T04:35:30.672Z,70.70
2017-04-28T04:37:57.814Z,71.20
2017-04-28T04:40:25.094Z,71.10
2017-04-28T04:42:51.562Z,71.10
2017-04-28T04:45:18.098Z,71.80
2017-04-28T04:47:44.888Z,71.80
2017-04-28T04:50:12.079Z,71.30
2017-04-28T04:52:38.887Z,71.00
2017-04-28T04:55:06.097Z,71.00
2017-04-28T04:57:32.881Z,70.30
2017-04-28T04:59:59.653Z,70.90
2017-04-28T05:02:26.141Z,70.90
2017-04-28T05:04:52.911Z,70.60
2017-04-28T05:07:19.809Z,70.50
2017-04-28T05:09:46.226Z,70.50
2017-04-28T05:12:12.691Z,70.70
2017-04-28T05:14:39.967Z,71.70
2017-04-28T05:17:06.782Z,70.90
2017-04-28T05:19:33.532Z,70.30
2017-04-28T05:22:00.356Z,70.10
2017-04-28T05:24:27.173Z,70.20
2017-04-28T05:26:54.317Z,70.90
2017-04-28T05:29:21.085Z,70.40
2017-04-28T05:31:47.905Z,71.00
2017-04-28T05:34:15.111Z,70.90
2017-04-28T05:36:41.905Z,71.00
2017-04-28T05:39:08.313Z,71.00
2017-04-28T05:41:35.165Z,70.10
2017-04-28T05:44:01.930Z,71.50
2017-04-28T05:46:29.148Z,71.70
2017-04-28T05:48:55.909Z,72.10
2017-04-28T05:51:22.751Z,71.90
2017-04-28T05:53:49.910Z,72.30
2017-04-28T05:56:16.391Z,72.30
2017-04-28T05:58:43.150Z,71.70
2017-04-28T06:01:10.050Z,72.50
2017-04-28T06:03:36.457Z,72.50
2017-04-28T06:06:02.948Z,71.40
2017-04-28T06:08:29.786Z,71.70
2017-04-28T06:10:56.657Z,71.40
2017-04-28T06:13:23.411Z,71.30
2017-04-28T06:15:50.228Z,70.50
2017-04-28T06:18:17.061Z,70.80
2017-04-28T06:20:43.916Z,70.80
2017-04-28T06:23:10.694Z,69.80
2017-04-28T06:25:37.925Z,70.60
2017-04-28T06:28:04.726Z,70.20
2017-04-28T06:30:31.219Z,70.20
2017-04-28T06:32:57.670Z,70.00
2017-04-28T06:35:24.505Z,70.50
2017-04-28T06:37:51.292Z,70.90
2017-04-28T06:40:18.254Z,70.20
2017-04-28T06:42:45.067Z,70.00
2017-04-28T06:45:11.572Z,70.00
2017-04-28T06:47:38.374Z,69.10
2017-04-28T06:50:04.813Z,69.10
2017-04-28T06:52:32.040Z,70.00
2017-04-28T06:54:58.841Z,70.50
2017-04-28T06:57:26.059Z,70.10
2017-04-28T06:59:52.858Z,70.10
2017-04-28T07:02:19.677Z,69.50
2017-04-28T07:04:46.494Z,69.30
2017-04-28T07:07:13.788Z,70.00
2017-04-28T07:09:40.561Z,70.20
2017-04-28T07:12:07.072Z,70.20
2017-04-28T07:14:33.926Z,69.70
2017-04-28T07:17:00.733Z,68.60
2017-04-28T07:19:28.008Z,68.90
2017-04-28T07:21:54.831Z,69.70
2017-04-28T07:24:21.260Z,69.70
2017-04-28T07:26:48.345Z,69.30
2017-04-28T07:29:15.117Z,68.50
2017-04-28T07:31:42.100Z,68.40
2017-04-28T07:34:09.229Z,68.10
2017-04-28T07:36:35.690Z,68.10
2017-04-28T07:39:02.585Z,69.00
2017-04-28T07:41:29.401Z,70.00
2017-04-28T07:43:55.821Z,70.00
2017-04-28T07:46:22.712Z,70.70
2017-04-28T07:48:49.930Z,69.90
2017-04-28T07:51:17.152Z,69.60
2017-04-28T07:53:43.582Z,69.60
2017-04-28T07:56:10.417Z,68.80
2017-04-28T07:58:36.857Z,68.80
2017-04-28T08:01:03.298Z,69.10
2017-04-28T08:03:30.077Z,70.00
2017-04-28T08:05:57.286Z,69.00
2017-04-28T08:08:24.031Z,69.10
2017-04-28T08:10:50.897Z,68.50
2017-04-28T08:13:18.629Z,69.30
2017-04-28T08:15:45.346Z,69.30
2017-04-28T08:18:12.128Z,68.90
2017-04-28T08:20:39.005Z,68.40
2017-04-28T08:23:05.821Z,67.60
2017-04-28T08:25:32.640Z,66.60
2017-04-28T08:27:59.394Z,66.50
2017-04-28T08:30:25.859Z,66.50
2017-04-28T08:32:52.300Z,66.60
2017-04-28T08:35:19.408Z,66.70
2017-04-28T08:37:45.788Z,66.70
2017-04-28T08:40:12.286Z,65.60
2017-04-28T08:42:38.702Z,65.00
2017-04-28T08:45:05.576Z,64.90
2017-04-28T08:47:32.675Z,65.00
2017-04-28T08:49:59.709Z,65.40
2017-04-28T08:52:26.545Z,65.40
2017-04-28T08:54:53.319Z,66.00
2017-04-28T08:57:20.145Z,66.70
2017-04-28T08:59:47.416Z,67.80
2017-04-28T09:02:14.286Z,67.40
2017-04-28T09:04:41.112Z,66.40
2017-04-28T09:07:08.342Z,66.10
2017-04-28T09:09:35.120Z,67.70
2017-04-28T09:12:02.046Z,67.70
2017-04-28T09:14:28.875Z,67.70
2017-04-28T09:16:55.693Z,67.00
2017-04-28T09:19:22.093Z,67.10
2017-04-28T09:21:48.901Z,68.30
2017-04-28T09:24:16.052Z,66.70
2017-04-28T09:26:42.909Z,67.20
2017-04-28T09:29:09.687Z,67.50
2017-04-28T09:31:36.533Z,66.60
2017-04-28T09:34:03.380Z,66.40
2017-04-28T09:36:30.665Z,66.10
2017-04-28T09:38:57.086Z,66.10
2017-04-28T09:41:23.963Z,66.90
2017-04-28T09:43:50.749Z,67.30
2017-04-28T09:46:17.986Z,67.00
2017-04-28T09:48:44.850Z,67.20
2017-04-28T09:51:11.309Z,67.20
2017-04-28T09:53:38.089Z,65.30
2017-04-28T09:56:04.793Z,65.30
2017-04-28T09:58:31.585Z,63.30
2017-04-28T10:00:58.442Z,63.10
2017-04-28T10:03:25.245Z,64.60
2017-04-28T10:05:52.142Z,63.30
2017-04-28T10:08:18.942Z,64.10
2017-04-28T10:10:46.253Z,65.00
2017-04-28T10:13:13.032Z,65.00
2017-04-28T10:15:40.150Z,65.40
2017-04-28T10:18:06.666Z,65.40
2017-04-28T10:20:33.531Z,64.80
2017-04-28T10:23:00.405Z,64.10
2017-04-28T10:25:27.236Z,65.40
2017-04-28T10:27:53.925Z,65.40
2017-04-28T10:30:20.804Z,65.00
2017-04-28T10:32:47.584Z,64.10
2017-04-28T10:35:14.814Z,63.40
2017-04-28T10:37:41.991Z,62.60
2017-04-28T10:40:09.189Z,62.70
2017-04-28T10:42:35.981Z,62.60
2017-04-28T10:45:02.869Z,63.70
2017-04-28T10:47:29.772Z,62.00
2017-04-28T10:49:56.196Z,62.00
2017-04-28T10:52:23.170Z,63.20
2017-04-28T10:54:50.121Z,63.70
2017-04-28T10:57:16.570Z,63.70
2017-04-28T10:59:43.480Z,65.70
2017-04-28T11:02:09.973Z,65.70
2017-04-28T11:04:36.729Z,67.40
2017-04-28T11:07:03.906Z,67.20
2017-04-28T11:09:30.748Z,67.10
2017-04-28T11:11:58.183Z,67.10
2017-04-28T11:14:24.957Z,63.90
2017-04-28T11:16:51.426Z,63.90
2017-04-28T11:19:18.489Z,62.70
2017-04-28T11:21:45.355Z,61.80
2017-04-28T11:24:12.143Z,60.60
2017-04-28T11:26:38.990Z,59.90
2017-04-28T11:29:05.764Z,59.80
2017-04-28T11:31:32.889Z,59.30
2017-04-28T11:33:59.682Z,58.00
2017-04-28T11:36:26.530Z,58.10
2017-04-28T11:38:53.409Z,57.50
2017-04-28T11:41:20.312Z,58.70
2017-04-28T11:43:47.442Z,59.70
2017-04-28T11:46:14.292Z,61.10
2017-04-28T11:48:41.134Z,60.80
2017-04-28T11:51:08.018Z,60.70
2017-04-28T11:53:34.449Z,62.30
2017-04-28T11:56:01.254Z,65.10
2017-04-28T11:58:28.038Z,64.50
2017-04-28T12:00:54.489Z,64.60
2017-04-28T12:03:21.618Z,65.40
2017-04-28T12:05:48.438Z,66.40
2017-04-28T12:08:14.873Z,66.40
2017-04-28T12:10:41.749Z,66.70
2017-04-28T12:13:08.621Z,70.60
2017-04-28T12:15:35.825Z,70.90
2017-04-28T12:18:02.640Z,70.50
2017-04-28T12:20:29.765Z,68.50
2017-04-28T12:22:56.540Z,68.90
2017-04-28T12:25:23.380Z,69.30
2017-04-28T12:27:50.641Z,70.80
2017-04-28T12:30:17.484Z,68.90
2017-04-28T12:32:43.949Z,68.80
2017-04-28T12:35:11.096Z,63.60
2017-04-28T12:37:37.917Z,60.60
2017-04-28T12:40:04.713Z,60.70
2017-04-28T12:42:31.896Z,58.10
2017-04-28T12:44:58.705Z,56.70
2017-04-28T12:47:25.545Z,55.90
2017-04-28T12:49:52.313Z,55.90
2017-04-28T12:52:19.272Z,55.60
2017-04-28T12:54:45.698Z,55.60
2017-04-28T12:57:12.173Z,55.40
2017-04-28T12:59:39.009Z,55.20
2017-04-28T13:02:05.865Z,53.80
2017-04-28T13:04:33.037Z,52.90
2017-04-28T13:07:00.180Z,54.50
2017-04-28T13:09:27.342Z,53.70
2017-04-28T13:11:53.769Z,53.80
2017-04-28T13:14:20.594Z,53.80
2017-04-28T13:16:47.445Z,56.60
2017-04-28T13:19:14.253Z,62.00
2017-04-28T13:21:40.732Z,61.90
2017-04-28T13:24:07.568Z,66.30
2017-04-28T13:26:34.451Z,66.30
2017-04-28T13:29:01.231Z,67.90
2017-04-28T13:31:27.961Z,67.90
2017-04-28T13:33:54.734Z,67.60
2017-04-28T13:36:22.419Z,70.10
2017-04-28T13:38:48.854Z,70.10
2017-04-28T13:41:15.461Z,69.70
2017-04-28T13:43:42.305Z,69.80
2017-04-28T13:46:09.497Z,69.60
2017-04-28T13:48:36.325Z,69.10
2017-04-28T13:51:02.879Z,69.10
2017-04-28T13:53:29.669Z,67.20
2017-04-28T13:55:56.534Z,66.90
2017-04-28T13:58:23.363Z,65.60
2017-04-28T14:00:50.122Z,65.60
2017-04-28T14:03:16.928Z,62.30
2017-04-28T14:05:43.734Z,60.00
2017-04-28T14:08:10.573Z,55.00
2017-04-28T14:10:37.459Z,52.30
2017-04-28T14:13:03.926Z,52.30
2017-04-28T14:15:30.759Z,50.40
2017-04-28T14:17:57.554Z,50.00
2017-04-28T14:20:24.701Z,48.30
2017-04-28T14:22:51.523Z,48.70
2017-04-28T14:25:18.042Z,48.70
2017-04-28T14:27:44.491Z,47.80
2017-04-28T14:30:11.746Z,48.70
2017-04-28T14:32:38.540Z,48.40
2017-04-28T14:35:06.629Z,45.70
2017-04-28T14:37:33.097Z,45.70
2017-04-28T14:40:00.335Z,41.50
2017-04-28T14:42:27.262Z,39.30
2017-04-28T14:44:53.692Z,39.30
2017-04-28T14:47:20.457Z,39.50
2017-04-28T14:49:47.266Z,38.30
2017-04-28T14:52:14.541Z,37.40
2017-04-28T14:54:40.969Z,37.50
2017-04-28T14:57:07.856Z,38.80
2017-04-28T14:59:34.301Z,38.80
2017-04-28T15:02:01.171Z,35.40
2017-04-28T15:04:27.980Z,34.90
2017-04-28T15:06:54.553Z,34.90
2017-04-28T15:09:21.336Z,35.40
2017-04-28T15:11:48.255Z,34.80
2017-04-28T15:14:15.065Z,32.90
2017-04-28T15:16:41.557Z,32.90
2017-04-28T15:19:08.400Z,31.40
2017-04-28T15:21:36.029Z,32.00
2017-04-28T15:24:02.442Z,32.00
2017-04-28T15:26:28.910Z,34.20
2017-04-28T15:28:55.729Z,30.80
2017-04-28T15:31:22.457Z,30.80
2017-04-28T15:33:48.878Z,31.00
2017-04-28T15:36:16.035Z,30.20
2017-04-28T15:38:42.906Z,31.10
2017-04-28T15:41:09.839Z,32.10
2017-04-28T15:43:36.705Z,32.10
2017-04-28T15:46:03.610Z,37.00
2017-04-28T15:48:30.547Z,36.00
2017-04-28T15:50:57.054Z,35.90
2017-04-28T15:53:23.854Z,35.20
2017-04-28T15:55:50.586Z,35.20
2017-04-28T15:58:17.009Z,36.50
2017-04-28T16:00:44.206Z,39.20
2017-04-28T16:03:11.053Z,39.50
2017-04-28T16:05:38.368Z,40.30
2017-04-28T16:08:05.174Z,37.60
2017-04-28T16:10:32.381Z,37.60
2017-04-28T16:12:59.162Z,38.70
2017-04-28T16:15:25.718Z,38.70
2017-04-28T16:17:52.138Z,42.30
2017-04-28T16:20:19.000Z,45.20
2017-04-28T16:22:46.186Z,48.00
2017-04-28T16:25:13.045Z,51.80
2017-04-28T16:27:39.894Z,51.10
2017-04-28T16:30:06.808Z,53.80
2017-04-28T16:32:33.259Z,53.80
2017-04-28T16:35:00.157Z,56.10
2017-04-28T16:37:26.971Z,53.30
2017-04-28T16:39:53.759Z,52.70
2017-04-28T16:42:20.642Z,54.20
2017-04-28T16:44:47.436Z,53.10
2017-04-28T16:47:14.666Z,54.70
2017-04-28T16:49:41.861Z,54.50
2017-04-28T16:52:08.336Z,54.50
2017-04-28T16:54:35.539Z,52.90
2017-04-28T16:57:02.028Z,52.90
2017-04-28T16:59:28.445Z,54.60
2017-04-28T17:01:55.650Z,53.00
2017-04-28T17:04:22.468Z,50.70
2017-04-28T17:06:49.741Z,51.80
2017-04-28T17:09:16.545Z,52.10
2017-04-28T17:11:43.418Z,53.30
2017-04-28T17:14:10.205Z,51.90
2017-04-28T17:16:37.119Z,53.40
2017-04-28T17:19:03.944Z,55.30
2017-04-28T17:21:30.690Z,55.30
2017-04-28T17:23:57.490Z,57.70
2017-04-28T17:26:24.313Z,58.80
2017-04-28T17:28:51.086Z,59.60
2017-04-28T17:31:17.969Z,61.00
2017-04-28T17:33:44.798Z,61.80
2017-04-28T17:36:11.267Z,61.80
2017-04-28T17:38:39.177Z,62.20
2017-04-28T17:41:06.096Z,62.20
2017-04-28T17:43:32.923Z,62.50
2017-04-28T17:45:59.817Z,63.20
2017-04-28T17:48:26.286Z,63.20
2017-04-28T17:50:53.146Z,62.00
2017-04-28T17:53:20.029Z,62.80
2017-04-28T17:55:46.537Z,62.80
2017-04-28T17:58:12.941Z,62.30
2017-04-28T18:00:40.141Z,63.10
2017-04-28T18:03:06.961Z,63.50
2017-04-28T18:05:33.854Z,63.30
2017-04-28T18:08:00.723Z,64.40
2017-04-28T18:10:27.581Z,65.30
2017-04-28T18:12:54.912Z,65.80
2017-04-28T18:15:22.306Z,66.90
2017-04-28T18:17:49.144Z,67.10
2017-04-28T18:20:16.053Z,67.00
2017-04-28T18:22:42.921Z,67.60
2017-04-28T18:25:09.717Z,67.60
2017-04-28T18:27:36.141Z,68.90
2017-04-28T18:30:03.523Z,71.50
2017-04-28T18:32:30.032Z,71.40
2017-04-28T18:34:57.103Z,72.80
2017-04-28T18:37:23.870Z,72.80
2017-04-28T18:39:50.669Z,72.90
2017-04-28T18:42:17.514Z,72.30
2017-04-28T18:44:44.730Z,71.60
2017-04-28T18:47:11.987Z,73.40
2017-04-28T18:49:38.413Z,73.40
2017-04-28T18:52:05.604Z,73.10
2017-04-28T18:54:32.042Z,73.00
2017-04-28T18:56:58.946Z,73.40
2017-04-28T18:59:25.773Z,73.90
2017-04-28T19:01:52.617Z,74.40
2017-04-28T19:04:19.455Z,74.50
2017-04-28T19:06:46.303Z,74.30
2017-04-28T19:09:13.093Z,74.60
2017-04-28T19:11:39.602Z,74.60
2017-04-28T19:14:06.912Z,75.20
2017-04-28T19:16:33.749Z,76.00
2017-04-28T19:19:00.881Z,75.40
2017-04-28T19:21:27.745Z,76.80
2017-04-28T19:23:54.504Z,75.60
2017-04-28T19:26:20.978Z,75.60
2017-04-28T19:28:47.778Z,76.80
2017-04-28T19:31:14.671Z,76.80
2017-04-28T19:33:41.513Z,76.60
2017-04-28T19:36:09.011Z,76.80
2017-04-28T19:38:35.812Z,74.80
2017-04-28T19:41:03.074Z,75.60
2017-04-28T19:43:29.889Z,74.90
2017-04-28T19:45:56.384Z,74.90
2017-04-28T19:48:23.333Z,76.10
2017-04-28T19:50:50.507Z,75.00
2017-04-28T19:53:17.250Z,75.00
2017-04-28T19:55:44.204Z,75.40
2017-04-28T19:58:11.951Z,75.40
2017-04-28T20:00:38.833Z,74.60
2017-04-28T20:03:05.656Z,74.20
2017-04-28T20:05:32.352Z,74.20
2017-04-28T20:07:59.682Z,75.10
2017-04-28T20:10:26.620Z,76.00
2017-04-28T20:12:53.397Z,76.40
2017-04-28T20:15:19.960Z,76.40
2017-04-28T20:17:46.810Z,74.60
2017-04-28T20:20:13.414Z,74.60
2017-04-28T20:22:40.619Z,75.80
2017-04-28T20:25:08.888Z,74.70
2017-04-28T20:27:35.686Z,75.70
2017-04-28T20:30:02.185Z,75.60
2017-04-28T20:32:29.083Z,76.40
2017-04-28T20:34:55.539Z,76.40
2017-04-28T20:37:22.309Z,76.40
2017-04-28T20:39:49.116Z,74.70
2017-04-28T20:42:16.009Z,74.50
2017-04-28T20:44:44.054Z,74.40
2017-04-28T20:47:10.925Z,74.30
2017-04-28T20:49:37.771Z,75.20
2017-04-28T20:52:05.263Z,75.20
2017-04-28T20:54:31.701Z,75.50
2017-04-28T20:56:58.857Z,75.20
2017-04-28T20:59:25.658Z,75.00
2017-04-28T21:01:52.538Z,75.50
2017-04-28T21:04:19.357Z,76.60
2017-04-28T21:06:47.365Z,75.30
2017-04-28T21:09:14.464Z,75.40
2017-04-28T21:11:41.673Z,75.80
2017-04-28T21:14:08.182Z,75.80
2017-04-28T21:16:35.078Z,75.80
2017-04-28T21:19:02.288Z,75.80
2017-04-28T21:21:30.367Z,77.50
2017-04-28T21:23:57.191Z,75.20
2017-04-28T21:26:24.058Z,75.40
2017-04-28T21:28:50.879Z,74.60
2017-04-28T21:31:17.722Z,75.90
2017-04-28T21:33:44.523Z,76.00
2017-04-28T21:36:11.432Z,75.80
2017-04-28T21:38:38.250Z,75.50
2017-04-28T21:41:05.138Z,75.80
2017-04-28T21:43:31.605Z,75.80
2017-04-28T21:45:58.448Z,75.30
2017-04-28T21:48:25.219Z,75.40
2017-04-28T21:50:52.400Z,74.10
2017-04-28T21:53:19.200Z,74.50
2017-04-28T21:55:46.687Z,75.30
2017-04-28T21:58:13.127Z,75.30
2017-04-28T22:00:40.418Z,75.50
2017-04-28T22:03:07.251Z,74.90
2017-04-28T22:05:34.427Z,74.60
2017-04-28T22:08:01.257Z,73.80
2017-04-28T22:10:28.046Z,73.80
2017-04-28T22:12:54.801Z,75.30
2017-04-28T22:15:38.765Z,75.30
2017-04-28T22:18:05.622Z,74.10
2017-04-28T22:20:32.109Z,74.10
2017-04-28T22:22:58.569Z,74.60
2017-04-28T22:25:25.396Z,74.40
2017-04-28T22:27:51.806Z,74.40
2017-04-28T22:30:18.949Z,75.10
2017-04-28T22:32:45.725Z,75.30
2017-04-28T22:35:12.224Z,75.30
2017-04-28T22:37:39.153Z,76.00
2017-04-28T22:40:06.101Z,76.60
2017-04-28T22:42:33.375Z,77.00
2017-04-28T22:45:00.173Z,77.10
2017-04-28T22:47:27.029Z,77.60
2017-04-28T22:49:53.453Z,77.60
2017-04-28T22:52:19.933Z,76.30
2017-04-28T22:54:46.737Z,76.50
2017-04-28T22:57:13.589Z,77.70
2017-04-28T22:59:39.997Z,77.60
2017-04-28T23:02:06.449Z,77.50
2017-04-28T23:04:33.220Z,76.50
2017-04-28T23:07:00.328Z,76.20
2017-04-28T23:09:27.137Z,76.50
2017-04-28T23:11:54.001Z,77.40
2017-04-28T23:14:20.805Z,78.10
2017-04-28T23:16:47.256Z,78.10
2017-04-28T23:19:14.357Z,76.70
2017-04-28T23:21:41.222Z,76.10
2017-04-28T23:24:08.017Z,76.60
2017-04-28T23:26:34.890Z,75.50
2017-04-28T23:29:01.338Z,75.50
2017-04-28T23:31:28.485Z,75.70
2017-04-28T23:33:54.870Z,75.70
2017-04-28T23:36:21.708Z,76.60
2017-04-28T23:38:48.843Z,76.90
2017-04-28T23:41:15.309Z,76.90
2017-04-28T23:43:42.113Z,75.80
2017-04-28T23:46:08.574Z,75.80
2017-04-28T23:48:35.372Z,76.30
2017-04-28T23:51:02.258Z,76.20
2017-04-28T23:53:28.660Z,76.20
2017-04-28T23:55:55.546Z,75.40
2017-04-28T23:58:22.318Z,75.10
